Startpagina
METAR-TAF:

METAR-TAF

Vliegvelden :

Rivas, Nicaragua

breedte: 11-25N, lengte: 085-50W, hoogte: 53 m

Actueel weer

Dit bericht is 37 minuten geleden gemaakt, om 18:00 UTC
Wind 12 kt uit het oostzuidoosten
Temperatuur 32°C
Vochtigheid 52%
Druk 1009 hPa
Zicht 10 km of meer
Weinig wolken op 1500 ft

METAR: MNRS 181800Z 11012KT 9999 FEW015 32/21 Q1009 1AC070 1CS200

Tijdstip: 12:37 (18:37 UTC)


TAF: ontbreekt

Waarnemingen en weersverwachtingen van meer dan 4000 vliegvelden (METAR en TAF).

De beschikbare stations zijn de gele en rode punten op de kaart.

Ga met uw muis naar het station om de naam te zien.

Klik dan om waarnemingen en weersverwachtingen te zien.

kaart wijzigen: klik op de groene knoppen met een zwart kruis om in te zoomen, op de groene knop met een streepje om uit te zoomen of op de groene pijlen voor aangrenzende kaarten.


METAR-TAF: